Nearby METAR Reports

 

KSJC - San Jose, California, USA
Distance from station: NE 14km
Updated: 01/10/2022 19:53
Few Clouds
Few Clouds
 Wind from N
Wind: N 13 km/h
Temperature: 18°C
Dew Point: 13°C
Humidity: 73%
Barometer: 1011.2 hPa
Clouds: Few Clouds
Visibility: 16 km
Cloud details: Few Clouds 427 m
Few Clouds 762 m
2022/10/02 02:53 KSJC 020253Z 35007KT 10SM FEW014 FEW025 18/13 A2986 RMK AO2 SLP112 T01780133 51013 $
KNUQ - Moffett Nas/Mtn, California, USA
Distance from station: N 14km
Updated: 01/10/2022 19:35
Clear
Clear
 Wind from NNW
Wind: NNW 7 km/h
Temperature: 18°C
Dew Point: 13°C
Humidity: 73%
Barometer: 1011.2 hPa
Clouds: Clear
Visibility: 16 km
2022/10/02 02:35 KNUQ 020235Z AUTO 33004KT 10SM CLR 18/13 A2986 RMK AO2
 
KPAO - Palo Alto, California, USA
Distance from station: NNW 23km
Updated: 01/10/2022 19:47
Clear
Clear
 Wind from WNW
Wind: WNW 13 km/h
Temperature: 17°C
Dew Point: 13°C
Humidity: 77%
Barometer: 1011.5 hPa
Clouds: Clear
Visibility: 16 km
2022/10/02 02:47 KPAO 020247Z 29007KT 10SM SKC 17/13 A2987
KRHV - San Jose/Reid, California, USA
Distance from station: ENE 19km
Updated: 01/10/2022 18:47
Clear
Clear
 Wind from WNW
Wind: WNW 17 km/h
Temperature: 19°C
Dew Point: 14°C
Humidity: 73%
Barometer: 1011.2 hPa
Clouds: Clear
Visibility: 16 km
2022/10/02 01:47 KRHV 020147Z 30009KT 10SM SKC 19/14 A2986
 
KOAK - Oakland, California, USA
Distance from station: NNW 50km
Updated: 01/10/2022 19:53
Partly cloudy
Partly cloudy
 Wind from W
Wind: W 22 km/h
Temperature: 17°C
Dew Point: 13°C
Humidity: 77%
Barometer: 1011.5 hPa
Clouds: Partly cloudy
Visibility: 16 km
Cloud details: Few Clouds 244 m
Few Clouds 366 m
Partly cloudy 518 m
2022/10/02 02:53 KOAK 020253Z 27012KT 10SM FEW008 FEW012 SCT017 17/13 A2987 RMK AO2 SLP116 T01720128 51006
KSQL - San Carlos Airpo, California, USA
Distance from station: NW 34km
Updated: 01/10/2022 19:47
Partly cloudy
Partly cloudy
 Wind from calm
Wind: Calm
Temperature: 17°C
Dew Point: 13°C
Humidity: 77%
Barometer: 1011.5 hPa
Clouds: Partly cloudy
Visibility: 16 km
Cloud details: Partly cloudy 549 m
2022/10/02 02:47 KSQL 020247Z 00000KT 10SM SCT018 17/13 A2987
 
KSFO - San Francisco, California, USA
Distance from station: NW 49km
Updated: 01/10/2022 18:56
Partly cloudy
Partly cloudy
 Wind from WSW
Wind: WSW 20 km/h
Temperature: 17°C
Dew Point: 13°C
Humidity: 77%
Barometer: 1011.2 hPa
Clouds: Partly cloudy
Visibility: 16 km
Cloud details: Partly cloudy 518 m
Partly cloudy 6096 m
2022/10/02 01:56 KSFO 020156Z 24011KT 10SM SCT017 SCT200 17/13 A2986 RMK AO2 SLP112 T01720133
KE16 - San Martin, California, USA
Distance from station: ESE 43km
Updated: 01/10/2022 19:35
Partly cloudy
Partly cloudy
 Wind from SSE
Wind: SSE 17 km/h, Gust: 26 km/h
Temperature: 17°C
Dew Point: 13°C
Humidity: 77%
Barometer: 1012.2 hPa
Clouds: Partly cloudy
Visibility: 16 km
Cloud details: Few Clouds 1006 m
Partly cloudy 1280 m
Partly cloudy 1463 m
2022/10/02 02:35 KE16 020235Z AUTO 15009G14KT 10SM FEW033 SCT042 SCT048 17/13 A2989 RMK AO2 PWINO PNO
 
KWVI - Watsonville, California, USA
Distance from station: SSE 44km
Updated: 01/10/2022 19:53
Overcast
Overcast
 Wind from SW
Wind: SW 6 km/h
Temperature: 14°C
Dew Point: 13°C
Humidity: 94%
Barometer: 1012.5 hPa
Clouds: Overcast
Visibility: 16 km
Cloud details: Overcast 335 m
2022/10/02 02:53 KWVI 020253Z AUTO 23003KT 10SM OVC011 14/13 A2990 RMK AO2 SLP124 T01440133 51005
KHAF - Half Moon Bay, California, USA
Distance from station: WNW 50km
Updated: 01/10/2022 19:35
Overcast
Overcast
 Wind from S
Wind: S 11 km/h
Temperature: 16°C
Dew Point: 16°C
Humidity: 100%
Barometer: 1012.2 hPa
Clouds: Overcast
Visibility: 13 km
Cloud details: Overcast 549 m
2022/10/02 02:35 KHAF 020235Z AUTO 19006KT 8SM OVC018 16/16 A2989 RMK AO2
 
KHWD - Hayward, California, USA
Distance from station: N 44km
Updated: 01/10/2022 19:54
Overcast
Overcast
 Wind from WNW
Wind: WNW 15 km/h
Temperature: 17°C
Dew Point: 13°C
Humidity: 77%
Barometer: 1011.5 hPa
Clouds: Overcast
Visibility: 16 km
Cloud details: Overcast 518 m
2022/10/02 02:54 KHWD 020254Z 29008KT 10SM OVC017 17/13 A2987 RMK AO2 SLP123 T01720133 51004
KLVK - Livermore, California, USA
Distance from station: NNE 51km
Updated: 01/10/2022 19:53
Clear
Clear
 Wind from W
Wind: W 19 km/h
Temperature: 17°C
Dew Point: 13°C
Humidity: 77%
Barometer: 1010.8 hPa
Clouds: Clear
Visibility: 16 km
2022/10/02 02:53 KLVK 020253Z 28010KT 10SM CLR 17/13 A2985 RMK AO2 SLP106 T01670128 51015